Time;durP1;ratioP1;P1;durP2;ratioP2;P2;SDS_P1;SDS_P2;PMS_P1;PMS_P2;Temp;Humidity;BMP_temperature;BMP_pressure;BME280_temperature;BME280_humidity;BME280_pressure;Samples;Min_cycle;Max_cycle;Signal;HPM_P1;HPM_P2
2022/02/21 00:02:10;;;;;;;5.30;1.65;;;;;;;;;;5078502;28;20410;-48
2022/02/21 00:04:36;;;;;;;5.38;1.90;;;;;;;;;;5079143;28;20474;-48
2022/02/21 00:07:02;;;;;;;6.45;1.27;;;;;;;;;;5078629;28;20063;-46
2022/02/21 00:09:28;;;;;;;5.13;1.52;;;16.70;83.70;;;;;;5078747;28;20475;-48
2022/02/21 00:11:54;;;;;;;7.18;1.70;;;;;;;;;;5078957;28;20112;-50
2022/02/21 00:14:20;;;;;;;3.15;1.00;;;;;;;;;;5078715;28;20025;-48
2022/02/21 00:16:46;;;;;;;3.67;1.00;;;;;;;;;;5078658;28;20078;-47
2022/02/21 00:19:12;;;;;;;1.98;0.93;;;;;;;;;;5078579;28;20046;-47
2022/02/21 00:21:38;;;;;;;2.88;1.02;;;;;;;;;;5078605;28;20538;-47
2022/02/21 00:24:04;;;;;;;5.20;1.30;;;;;;;;;;5078541;28;20070;-47
2022/02/21 00:26:30;;;;;;;3.30;0.98;;;;;;;;;;5078488;28;20093;-49
2022/02/21 00:28:56;;;;;;;5.40;1.33;;;;;;;;;;5078559;28;20117;-48
2022/02/21 00:31:22;;;;;;;2.85;1.23;;;;;;;;;;5078579;28;20646;-49
2022/02/21 00:33:49;;;;;;;5.07;1.60;;;;;;;;;;5078481;28;20514;-49
2022/02/21 00:36:15;;;;;;;4.20;1.10;;;;;;;;;;5078451;28;20017;-47
2022/02/21 00:38:41;;;;;;;3.28;1.13;;;;;;;;;;5078448;28;20043;-46
2022/02/21 00:41:07;;;;;;;4.75;1.38;;;;;;;;;;5078372;28;20025;-47
2022/02/21 00:43:33;;;;;;;5.03;1.40;;;;;;;;;;5078395;28;20123;-47
2022/02/21 00:45:59;;;;;;;3.92;1.40;;;;;;;;;;5078349;28;20024;-47
2022/02/21 00:48:25;;;;;;;2.72;1.00;;;16.50;85.10;;;;;;5078668;28;20028;-46
2022/02/21 00:50:51;;;;;;;5.28;1.33;;;;;;;;;;5078449;28;20099;-49
2022/02/21 00:53:17;;;;;;;4.72;1.45;;;;;;;;;;5078264;28;20463;-46
2022/02/21 00:55:43;;;;;;;5.43;1.40;;;;;;;;;;5078614;28;20033;-49
2022/02/21 00:58:09;;;;;;;6.32;1.17;;;;;;;;;;5078524;28;20020;-48
2022/02/21 01:00:37;;;;;;;3.42;1.02;;;;;;;;;;5078254;28;20471;-46
2022/02/21 01:03:03;;;;;;;5.53;1.35;;;16.40;87.90;;;;;;5074538;28;20045;-47
2022/02/21 01:05:29;;;;;;;3.45;0.93;;;;;;;;;;5075599;28;20082;-49
2022/02/21 01:07:55;;;;;;;5.68;1.55;;;;;;;;;;5074992;28;20051;-47
2022/02/21 01:10:21;;;;;;;2.42;1.08;;;;;;;;;;5074948;28;20024;-47
2022/02/21 01:12:47;;;;;;;4.97;1.00;;;;;;;;;;5075178;28;20028;-48
2022/02/21 01:15:14;;;;;;;3.42;1.30;;;;;;;;;;5075127;28;20024;-48
2022/02/21 01:17:42;;;;;;;5.25;1.40;;;16.30;89.80;;;;;;5074892;28;20024;-48
2022/02/21 01:20:08;;;;;;;2.40;1.08;;;;;;;;;;5075083;28;20025;-47
2022/02/21 01:22:34;;;;;;;4.57;1.23;;;;;;;;;;5075012;28;20035;-46
2022/02/21 01:25:00;;;;;;;5.72;1.45;;;;;;;;;;5074824;28;20032;-48
2022/02/21 01:27:26;;;;;;;4.75;0.93;;;;;;;;;;5074585;28;20127;-48
2022/02/21 01:29:53;;;;;;;4.57;1.35;;;;;;;;;;5074885;28;20107;-51
2022/02/21 01:32:19;;;;;;;6.28;1.50;;;;;;;;;;5074562;28;20550;-50
2022/02/21 01:34:45;;;;;;;3.83;1.17;;;;;;;;;;5074487;28;20056;-50
2022/02/21 01:37:11;;;;;;;3.40;1.00;;;;;;;;;;5074473;28;20060;-49
2022/02/21 01:39:37;;;;;;;4.78;1.00;;;;;;;;;;5074350;28;20062;-50
2022/02/21 01:42:03;;;;;;;2.80;1.02;;;;;;;;;;5074359;28;20121;-50
2022/02/21 01:44:36;;;;;;;2.55;0.82;;;16.30;90.00;;;;;;5074567;28;20020;-49
2022/02/21 01:47:03;;;;;;;4.20;0.98;;;16.30;90.00;;;;;;5074311;28;20036;-49
2022/02/21 01:49:29;;;;;;;3.13;1.00;;;;;;;;;;5074214;28;20027;-51
2022/02/21 01:51:55;;;;;;;4.65;1.00;;;;;;;;;;5074191;28;20029;-52
2022/02/21 01:54:21;;;;;;;4.90;1.38;;;16.20;90.00;;;;;;5074124;28;20056;-52
2022/02/21 01:56:47;;;;;;;2.22;1.10;;;;;;;;;;5074049;28;20495;-54
2022/02/21 01:59:13;;;;;;;7.13;1.25;;;;;;;;;;5074387;28;20108;-50
2022/02/21 02:01:39;;;;;;;3.65;1.30;;;;;;;;;;5073913;28;20438;-51
2022/02/21 02:04:05;;;;;;;2.65;1.45;;;;;;;;;;5073906;28;20133;-50
2022/02/21 02:06:31;;;;;;;4.43;1.52;;;;;;;;;;5073852;28;20033;-51
2022/02/21 02:08:58;;;;;;;3.45;0.95;;;;;;;;;;5073903;28;20074;-50
2022/02/21 02:11:29;;;;;;;4.35;1.00;;;16.10;90.00;;;;;;5073791;28;20036;-52
2022/02/21 02:13:55;;;;;;;4.45;1.17;;;;;;;;;;5073934;28;20050;-54
2022/02/21 02:16:21;;;;;;;5.32;1.33;;;;;;;;;;5073658;28;20101;-49
2022/02/21 02:18:47;;;;;;;3.40;0.90;;;;;;;;;;5073651;28;20028;-53
2022/02/21 02:21:21;;;;;;;5.43;1.40;;;16.10;87.30;;;;;;5073601;28;20047;-51
2022/02/21 02:23:48;;;;;;;6.57;1.52;;;16.10;87.30;;;;;;5073698;28;20028;-50
2022/02/21 02:26:14;;;;;;;3.95;1.13;;;;;;;;;;5073426;28;20119;-50
2022/02/21 02:28:40;;;;;;;4.60;1.50;;;;;;;;;;5073428;28;20037;-51
2022/02/21 02:31:05;;;;;;;4.60;1.25;;;;;;;;;;5073370;28;20028;-52
2022/02/21 02:33:33;;;;;;;6.43;1.10;;;;;;;;;;5073346;28;20064;-52
2022/02/21 02:36:00;;;;;;;5.38;1.38;;;;;;;;;;5073323;28;20528;-51
2022/02/21 02:38:26;;;;;;;4.70;1.20;;;;;;;;;;5073524;28;20390;-51
2022/02/21 02:40:52;;;;;;;4.15;1.23;;;;;;;;;;5073256;28;20479;-49
2022/02/21 02:43:18;;;;;;;3.88;0.85;;;;;;;;;;5073229;28;20067;-52
2022/02/21 02:45:44;;;;;;;3.72;1.10;;;;;;;;;;5073065;28;20460;-51
2022/02/21 02:48:11;;;;;;;3.17;0.93;;;;;;;;;;5073304;28;20064;-49
2022/02/21 02:50:38;;;;;;;5.93;1.55;;;;;;;;;;5072994;28;20040;-54
2022/02/21 02:53:04;;;;;;;4.20;0.95;;;;;;;;;;5072981;28;20505;-53
2022/02/21 02:55:29;;;;;;;3.67;1.38;;;;;;;;;;5072971;28;20108;-51
2022/02/21 02:57:55;;;;;;;5.68;0.85;;;;;;;;;;5072872;28;20033;-50
2022/02/21 03:00:22;;;;;;;3.75;1.15;;;;;;;;;;5072988;28;20111;-50
2022/02/21 03:02:48;;;;;;;3.05;0.88;;;;;;;;;;5072495;28;20474;-51
2022/02/21 03:05:14;;;;;;;3.38;1.15;;;;;;;;;;5072799;28;20029;-53
2022/02/21 03:07:40;;;;;;;4.38;1.13;;;;;;;;;;5072596;28;20052;-52
2022/02/21 03:10:06;;;;;;;2.35;0.82;;;;;;;;;;5072986;28;20024;-50
2022/02/21 03:12:32;;;;;;;4.40;1.30;;;;;;;;;;5072642;28;20032;-51
2022/02/21 03:14:58;;;;;;;6.05;1.45;;;;;;;;;;5072624;28;20078;-52
2022/02/21 03:17:24;;;;;;;2.70;1.08;;;;;;;;;;5072622;28;20033;-53
2022/02/21 03:19:50;;;;;;;4.13;1.35;;;;;;;;;;5072760;28;20024;-50
2022/02/21 03:22:16;;;;;;;5.50;1.20;;;;;;;;;;5072577;28;20094;-52
2022/02/21 03:24:42;;;;;;;2.53;0.90;;;;;;;;;;5072206;28;20494;-50
2022/02/21 03:27:08;;;;;;;5.25;1.48;;;;;;;;;;5072185;28;20071;-49
2022/02/21 03:29:34;;;;;;;3.40;1.25;;;;;;;;;;5054479;28;20086;-51
2022/02/21 03:32:00;;;;;;;5.43;1.45;;;;;;;;;;5072323;28;20422;-51
2022/02/21 03:34:26;;;;;;;3.47;1.58;;;;;;;;;;5072392;28;20032;-51
2022/02/21 03:36:52;;;;;;;4.45;1.63;;;;;;;;;;5072428;28;20507;-50
2022/02/21 03:39:18;;;;;;;5.47;1.27;;;;;;;;;;5072418;28;20584;-54
2022/02/21 03:41:44;;;;;;;6.57;1.65;;;;;;;;;;5072229;28;20032;-50
2022/02/21 03:44:10;;;;;;;3.97;1.55;;;;;;;;;;5072238;28;20103;-52
2022/02/21 03:46:39;;;;;;;2.67;1.38;;;;;;;;;;5072183;28;20119;-49
2022/02/21 03:49:05;;;;;;;4.88;1.30;;;;;;;;;;5072140;28;20028;-50
2022/02/21 03:51:32;;;;;;;6.00;1.30;;;;;;;;;;5072152;28;20063;-52
2022/02/21 03:53:58;;;;;;;4.88;1.52;;;;;;;;;;5072353;28;20035;-52
2022/02/21 03:56:24;;;;;;;6.13;1.27;;;;;;;;;;5072229;28;20472;-52
2022/02/21 03:58:49;;;;;;;4.28;1.33;;;;;;;;;;5072089;28;20025;-50
2022/02/21 04:01:16;;;;;;;8.02;1.85;;;;;;;;;;5072108;28;20024;-52
2022/02/21 04:03:42;;;;;;;6.05;1.02;;;;;;;;;;5071835;28;20407;-50
2022/02/21 04:06:08;;;;;;;5.63;1.50;;;;;;;;;;5071949;28;20032;-54
2022/02/21 04:08:33;;;;;;;2.97;1.27;;;;;;;;;;5072063;28;20032;-49
2022/02/21 04:10:59;;;;;;;4.25;1.45;;;;;;;;;;5071974;28;20106;-51
2022/02/21 04:13:25;;;;;;;6.28;1.30;;;;;;;;;;5072398;28;20033;-50
2022/02/21 04:15:51;;;;;;;4.18;0.98;;;;;;;;;;5071970;28;20107;-51
2022/02/21 04:18:17;;;;;;;5.45;1.17;;;;;;;;;;5072208;28;20066;-53
2022/02/21 04:20:43;;;;;;;2.72;0.98;;;;;;;;;;5071899;28;20032;-49
2022/02/21 04:23:09;;;;;;;5.45;1.50;;;;;;;;;;5072133;28;20469;-50
2022/02/21 04:25:35;;;;;;;3.30;1.55;;;;;;;;;;5071854;28;20033;-50
2022/02/21 04:28:01;;;;;;;3.85;1.02;;;;;;;;;;5071672;28;20086;-53
2022/02/21 04:30:28;;;;;;;2.78;1.45;;;15.60;88.70;;;;;;5071882;28;20056;-51
2022/02/21 04:32:54;;;;;;;6.15;0.98;;;15.60;87.30;;;;;;5072061;28;20020;-52
2022/02/21 04:35:21;;;;;;;3.80;1.17;;;15.60;88.90;;;;;;5071766;28;20052;-50
2022/02/21 04:37:47;;;;;;;6.28;1.88;;;;;;;;;;5073031;28;20540;-50
2022/02/21 04:40:22;;;;;;;3.65;1.08;;;15.60;82.60;;;;;;5075708;28;20399;-50
2022/02/21 04:42:50;;;;;;;4.30;0.70;;;;;;;;;;5075697;28;20438;-50
2022/02/21 04:45:16;;;;;;;4.68;0.98;;;;;;;;;;5075300;28;20484;-49
2022/02/21 04:47:42;;;;;;;5.05;1.15;;;;;;;;;;5075552;28;20047;-52
2022/02/21 04:50:09;;;;;;;4.68;1.65;;;15.60;88.60;;;;;;5075425;28;20074;-50
2022/02/21 04:52:37;;;;;;;4.03;1.55;;;15.50;88.60;;;;;;5075582;28;20459;-51
2022/02/21 04:55:03;;;;;;;5.35;1.25;;;;;;;;;;5075220;28;20025;-50
2022/02/21 04:57:29;;;;;;;4.53;1.20;;;;;;;;;;5075160;28;20029;-52
2022/02/21 04:59:55;;;;;;;3.30;1.27;;;;;;;;;;5075147;28;20030;-49
2022/02/21 05:06:46;;;;;;;3.63;1.00;;;15.50;82.80;;;;;;5082055;28;20036;-47
2022/02/21 05:09:13;;;;;;;5.15;1.52;;;;;;;;;;5075022;28;20054;-47
2022/02/21 05:11:39;;;;;;;3.03;1.00;;;;;;;;;;5074990;28;20111;-47
2022/02/21 05:14:05;;;;;;;5.43;1.45;;;;;;;;;;5074996;28;20021;-48
2022/02/21 05:16:31;;;;;;;4.40;1.50;;;;;;;;;;5074888;28;20482;-47
2022/02/21 05:19:02;;;;;;;4.03;1.00;;;;;;;;;;5075020;28;20090;-49
2022/02/21 05:21:28;;;;;;;5.32;1.30;;;;;;;;;;5074809;28;20074;-47
2022/02/21 05:23:54;;;;;;;5.32;1.27;;;;;;;;;;5074796;28;20040;-48
2022/02/21 05:26:20;;;;;;;4.57;1.00;;;;;;;;;;5074681;28;20036;-46
2022/02/21 05:28:46;;;;;;;4.40;0.95;;;;;;;;;;5074607;28;20055;-47
2022/02/21 05:31:12;;;;;;;3.88;1.33;;;;;;;;;;5074659;28;20108;-48
2022/02/21 05:33:37;;;;;;;4.55;1.23;;;;;;;;;;5074766;28;20025;-46
2022/02/21 05:36:04;;;;;;;5.25;1.13;;;;;;;;;;5074569;28;20470;-47
2022/02/21 05:38:30;;;;;;;7.00;1.45;;;;;;;;;;5074592;28;20025;-49
2022/02/21 05:40:55;;;;;;;3.88;0.93;;;;;;;;;;5074478;28;20432;-49
2022/02/21 05:43:21;;;;;;;6.55;1.08;;;;;;;;;;5074406;28;20036;-48
2022/02/21 05:45:47;;;;;;;5.28;1.20;;;;;;;;;;5074402;28;20027;-47
2022/02/21 05:48:13;;;;;;;4.32;1.10;;;;;;;;;;5073750;28;20037;-50
2022/02/21 05:50:39;;;;;;;4.97;1.38;;;;;;;;;;5074284;28;20035;-49
2022/02/21 05:53:05;;;;;;;6.55;1.50;;;;;;;;;;5074317;28;20559;-49
2022/02/21 05:55:31;;;;;;;5.18;1.02;;;;;;;;;;5074466;28;20032;-49
2022/02/21 05:57:58;;;;;;;4.97;1.30;;;15.30;88.60;;;;;;5074209;28;20478;-49
2022/02/21 06:00:24;;;;;;;3.95;0.85;;;;;;;;;;5074087;28;20031;-48
2022/02/21 06:02:50;;;;;;;3.35;1.13;;;;;;;;;;5073929;28;20072;-47
2022/02/21 06:05:16;;;;;;;6.93;1.77;;;;;;;;;;5073988;28;20051;-48
2022/02/21 06:07:42;;;;;;;2.65;1.17;;;;;;;;;;5074134;28;20036;-49
2022/02/21 06:10:08;;;;;;;2.22;1.00;;;;;;;;;;5073898;28;20027;-48
2022/02/21 06:12:34;;;;;;;3.22;0.93;;;;;;;;;;5073920;28;20029;-50
2022/02/21 06:15:00;;;;;;;3.45;1.00;;;;;;;;;;5073817;28;20027;-48
2022/02/21 06:17:26;;;;;;;2.78;1.00;;;;;;;;;;5073741;28;20028;-48
2022/02/21 06:19:52;;;;;;;3.47;0.75;;;;;;;;;;5073960;28;20031;-49
2022/02/21 06:22:18;;;;;;;3.10;1.05;;;;;;;;;;5073613;28;20032;-48
2022/02/21 06:24:45;;;;;;;3.22;1.05;;;15.90;89.20;;;;;;5073541;28;20581;-48
2022/02/21 06:27:11;;;;;;;3.55;1.13;;;;;;;;;;5073455;28;20094;-48
2022/02/21 06:29:37;;;;;;;3.33;0.70;;;;;;;;;;5073419;28;20035;-48
2022/02/21 06:32:03;;;;;;;4.00;0.98;;;;;;;;;;5073320;28;20390;-49
2022/02/21 06:34:29;;;;;;;2.70;1.05;;;;;;;;;;5073373;28;20025;-50
2022/02/21 06:36:55;;;;;;;3.08;0.95;;;;;;;;;;5073294;28;20024;-49
2022/02/21 06:39:21;;;;;;;3.13;1.00;;;;;;;;;;5073270;28;20547;-50
2022/02/21 06:41:48;;;;;;;1.80;0.80;;;16.20;86.20;;;;;;5073029;28;20512;-49
2022/02/21 06:44:14;;;;;;;5.25;1.38;;;;;;;;;;5073043;28;20024;-50
2022/02/21 06:46:40;;;;;;;2.10;0.93;;;16.10;86.30;;;;;;5072958;28;20445;-48
2022/02/21 06:49:06;;;;;;;3.55;0.70;;;;;;;;;;5072946;28;20025;-48
2022/02/21 06:51:35;;;;;;;3.75;1.20;;;;;;;;;;5073113;28;20081;-47
2022/02/21 06:54:01;;;;;;;5.32;1.05;;;;;;;;;;5073113;28;20033;-48
2022/02/21 06:56:27;;;;;;;1.98;0.80;;;;;;;;;;5072835;28;20037;-50
2022/02/21 06:58:53;;;;;;;5.05;0.93;;;;;;;;;;5073009;28;20024;-50
2022/02/21 07:01:19;;;;;;;4.18;1.55;;;;;;;;;;5071972;28;20035;-48
2022/02/21 07:03:45;;;;;;;4.60;1.50;;;;;;;;;;5072578;28;20043;-50
2022/02/21 07:06:11;;;;;;;5.68;1.23;;;;;;;;;;5072634;28;20494;-51
2022/02/21 07:08:37;;;;;;;2.78;0.88;;;;;;;;;;5072840;28;20036;-49
2022/02/21 07:11:03;;;;;;;3.83;0.90;;;;;;;;;;5072710;28;20091;-49
2022/02/21 07:13:30;;;;;;;3.47;1.20;;;;;;;;;;5072749;28;20028;-49
2022/02/21 07:15:56;;;;;;;6.93;1.45;;;;;;;;;;5072664;28;20572;-46
2022/02/21 07:18:21;;;;;;;5.78;1.40;;;;;;;;;;5072665;28;20052;-46
2022/02/21 07:20:47;;;;;;;4.72;1.27;;;;;;;;;;5072636;28;20064;-49
2022/02/21 07:23:13;;;;;;;2.95;0.98;;;;;;;;;;5072600;28;20496;-50
2022/02/21 07:25:39;;;;;;;3.28;1.10;;;;;;;;;;5072531;28;20032;-49
2022/02/21 07:28:06;;;;;;;8.10;0.93;;;;;;;;;;5072428;28;20041;-47
2022/02/21 07:30:33;;;;;;;6.28;1.70;;;;;;;;;;5072429;28;20029;-54
2022/02/21 07:33:00;;;;;;;3.30;1.15;;;;;;;;;;5072158;28;20031;-52
2022/02/21 07:35:26;;;;;;;4.68;1.38;;;;;;;;;;5072338;28;20047;-53
2022/02/21 07:37:52;;;;;;;3.63;0.90;;;;;;;;;;5072577;28;20028;-54
2022/02/21 07:40:18;;;;;;;8.55;1.20;;;;;;;;;;5072347;28;20031;-56
2022/02/21 07:42:50;;;;;;;6.35;1.25;;;15.80;83.70;;;;;;5072324;28;20021;-56
2022/02/21 07:45:17;;;;;;;4.88;1.42;;;15.70;89.80;;;;;;5072380;28;20489;-55
2022/02/21 07:47:51;;;;;;;6.78;1.52;;;15.50;83.60;;;;;;5072259;28;20452;-54
2022/02/21 07:50:17;;;;;;;5.72;1.63;;;;;;;;;;5072178;28;20510;-53
2022/02/21 07:52:44;;;;;;;3.72;1.15;;;;;;;;;;5072235;28;20029;-55
2022/02/21 07:55:12;;;;;;;3.75;1.17;;;15.80;89.80;;;;;;5072463;28;20121;-57
2022/02/21 07:57:42;;;;;;;5.13;1.48;;;15.80;83.90;;;;;;5072224;28;20031;-56
2022/02/21 08:00:10;;;;;;;8.27;1.40;;;15.70;89.60;;;;;;5072122;28;20024;-53
2022/02/21 08:02:36;;;;;;;4.47;1.48;;;;;;;;;;5071686;28;20102;-56
2022/02/21 08:05:02;;;;;;;4.93;1.30;;;;;;;;;;5072372;28;20020;-52
2022/02/21 08:07:28;;;;;;;3.50;1.15;;;;;;;;;;5072036;28;20064;-56
2022/02/21 08:09:54;;;;;;;4.18;1.30;;;;;;;;;;5072387;28;20059;-54
2022/02/21 08:12:20;;;;;;;10.57;1.83;;;;;;;;;;5074302;28;20141;-54
2022/02/21 08:14:46;;;;;;;3.47;1.13;;;;;;;;;;5075865;28;20054;-56
2022/02/21 08:17:12;;;;;;;4.40;1.10;;;;;;;;;;5075929;28;20035;-56
2022/02/21 08:19:38;;;;;;;3.35;0.95;;;;;;;;;;5075840;28;20471;-57
2022/02/21 08:22:04;;;;;;;9.13;1.70;;;;;;;;;;5076227;28;20100;-56
2022/02/21 08:24:30;;;;;;;5.95;1.65;;;;;;;;;;5076183;28;20400;-57
2022/02/21 08:26:56;;;;;;;7.40;1.48;;;;;;;;;;5076006;28;20391;-58
2022/02/21 08:29:22;;;;;;;3.38;1.17;;;;;;;;;;5075702;28;20029;-57
2022/02/21 08:31:48;;;;;;;3.97;1.00;;;;;;;;;;5075760;28;20025;-57
2022/02/21 08:34:16;;;;;;;4.15;1.20;;;16.00;90.10;;;;;;5075950;28;20111;-57
2022/02/21 08:36:42;;;;;;;3.63;1.10;;;;;;;;;;5075589;28;20035;-56
2022/02/21 08:39:09;;;;;;;3.97;1.20;;;;;;;;;;5075561;28;20016;-56
2022/02/21 08:41:35;;;;;;;5.22;1.20;;;;;;;;;;5075851;28;20099;-55
2022/02/21 08:44:01;;;;;;;3.78;1.02;;;;;;;;;;5075424;28;20467;-55
2022/02/21 08:46:27;;;;;;;5.60;1.38;;;;;;;;;;5075455;28;20033;-55
2022/02/21 08:48:54;;;;;;;5.40;1.27;;;;;;;;;;5075427;28;20032;-56
2022/02/21 08:51:20;;;;;;;3.65;1.20;;;;;;;;;;5075332;28;20025;-54
2022/02/21 08:53:46;;;;;;;4.53;1.15;;;;;;;;;;5075288;28;20029;-55
2022/02/21 08:56:12;;;;;;;7.45;2.05;;;;;;;;;;5075296;28;20036;-53
2022/02/21 08:58:38;;;;;;;4.47;1.20;;;;;;;;;;5075568;28;20060;-56
2022/02/21 09:01:04;;;;;;;5.35;1.30;;;;;;;;;;5075469;28;20020;-56
2022/02/21 09:03:30;;;;;;;7.88;1.55;;;;;;;;;;5074986;28;20056;-55
2022/02/21 09:05:56;;;;;;;5.78;1.80;;;;;;;;;;5075078;28;20378;-55
2022/02/21 09:08:23;;;;;;;4.80;1.75;;;;;;;;;;5075000;28;20033;-53
2022/02/21 09:10:49;;;;;;;6.00;1.65;;;;;;;;;;5075309;28;20027;-54
2022/02/21 09:13:15;;;;;;;5.10;1.17;;;;;;;;;;5074971;28;20058;-53
2022/02/21 09:15:41;;;;;;;11.90;2.22;;;;;;;;;;5074879;28;20064;-52
2022/02/21 09:18:07;;;;;;;8.45;1.67;;;;;;;;;;5075088;28;20025;-56
2022/02/21 09:20:33;;;;;;;5.38;1.35;;;16.10;90.10;;;;;;5074911;28;20039;-56
2022/02/21 09:22:59;;;;;;;5.85;1.40;;;16.00;91.50;;;;;;5074096;28;20036;-56
2022/02/21 09:25:26;;;;;;;7.88;1.52;;;;;;;;;;5074731;28;20028;-55
2022/02/21 09:27:52;;;;;;;9.82;2.45;;;;;;;;;;5074603;28;20077;-54
2022/02/21 09:30:18;;;;;;;5.15;1.60;;;;;;;;;;5074878;28;20352;-55
2022/02/21 09:32:44;;;;;;;8.50;1.83;;;;;;;;;;5074636;28;20108;-55
2022/02/21 09:35:11;;;;;;;6.45;1.50;;;15.90;91.90;;;;;;5074854;28;20024;-56
2022/02/21 09:37:38;;;;;;;7.35;1.85;;;;;;;;;;5074466;28;20490;-55
2022/02/21 09:40:05;;;;;;;5.10;1.25;;;16.00;92.10;;;;;;5074474;28;20398;-55
2022/02/21 09:42:32;;;;;;;8.02;2.20;;;;;;;;;;5074232;28;20082;-55
2022/02/21 09:44:58;;;;;;;5.85;1.80;;;;;;;;;;5074368;28;20490;-54
2022/02/21 09:47:24;;;;;;;7.35;1.70;;;;;;;;;;5074270;28;20042;-56
2022/02/21 09:49:53;;;;;;;9.30;1.80;;;15.70;91.30;;;;;;5074281;28;20024;-55
2022/02/21 09:52:19;;;;;;;6.80;1.95;;;;;;;;;;5074178;28;20033;-56
2022/02/21 09:54:45;;;;;;;5.93;1.60;;;;;;;;;;5074175;28;20120;-56
2022/02/21 09:57:16;;;;;;;8.07;1.95;;;15.60;92.20;;;;;;5074238;28;20064;-53
2022/02/21 09:59:42;;;;;;;7.25;1.88;;;;;;;;;;5074005;28;20025;-55
2022/02/21 10:02:18;;;;;;;10.85;2.42;;;15.60;89.60;;;;;;5073648;28;20376;-56
2022/02/21 10:04:44;;;;;;;8.63;2.20;;;;;;;;;;5073628;28;20060;-55
2022/02/21 10:07:10;;;;;;;5.90;1.85;;;;;;;;;;5073693;28;20043;-55
2022/02/21 10:09:42;;;;;;;6.60;1.67;;;15.70;89.00;;;;;;5073419;28;20020;-56
2022/02/21 10:12:21;;;;;;;5.65;1.42;;;15.80;91.80;;;;;;5073303;28;20033;-55
2022/02/21 10:14:47;;;;;;;5.55;1.88;;;;;;;;;;5073258;28;20363;-54
2022/02/21 10:17:15;;;;;;;9.45;1.70;;;;;;;;;;5073205;28;20036;-53
2022/02/21 10:19:42;;;;;;;6.22;1.35;;;;;;;;;;5073279;28;20021;-51
2022/02/21 10:22:10;;;;;;;6.30;1.88;;;;;;;;;;5073354;28;20066;-54
2022/02/21 10:24:42;;;;;;;6.25;1.27;;;16.50;87.70;;;;;;5073486;28;20032;-53
2022/02/21 10:27:16;;;;;;;5.32;1.50;;;16.60;87.80;;;;;;5073665;28;20032;-53
2022/02/21 10:29:54;;;;;;;6.35;1.88;;;16.60;87.60;;;;;;5073403;28;20027;-55
2022/02/21 10:32:22;;;;;;;8.63;1.58;;;16.70;91.70;;;;;;5073377;28;20048;-53
2022/02/21 10:34:49;;;;;;;8.35;2.00;;;;;;;;;;5073264;28;20099;-55
2022/02/21 10:37:22;;;;;;;8.48;2.47;;;16.80;91.70;;;;;;5073550;28;20160;-55
2022/02/21 10:39:48;;;;;;;12.23;2.08;;;;;;;;;;5073319;28;20025;-54
2022/02/21 10:42:27;;;;;;;6.15;1.35;;;16.80;91.60;;;;;;5073288;28;20085;-56
2022/02/21 10:44:53;;;;;;;9.18;1.83;;;;;;;;;;5073098;28;20464;-54
2022/02/21 10:47:20;;;;;;;5.97;1.70;;;16.70;90.90;;;;;;5073061;28;20444;-56
2022/02/21 10:49:49;;;;;;;6.57;1.98;;;16.80;91.60;;;;;;5073394;28;20149;-55
2022/02/21 10:52:18;;;;;;;6.13;1.83;;;16.90;91.70;;;;;;5073080;28;20051;-56
2022/02/21 10:54:44;;;;;;;7.15;1.95;;;16.90;91.10;;;;;;5072883;28;20028;-54
2022/02/21 10:57:14;;;;;;;6.25;1.52;;;16.70;91.60;;;;;;5073233;28;20399;-50
2022/02/21 10:59:40;;;;;;;8.40;2.00;;;;;;;;;;5072967;28;20016;-52
2022/02/21 11:02:07;;;;;;;11.10;1.90;;;;;;;;;;5072686;28;20481;-52
2022/02/21 11:04:36;;;;;;;8.05;1.83;;;16.90;91.50;;;;;;5072687;28;20027;-55
2022/02/21 11:07:02;;;;;;;8.77;2.10;;;;;;;;;;5072552;28;20386;-54
2022/02/21 11:09:29;;;;;;;9.80;1.60;;;17.00;91.40;;;;;;5072798;28;20081;-48
2022/02/21 11:12:00;;;;;;;7.40;1.98;;;17.00;91.50;;;;;;5072557;28;20390;-49
2022/02/21 11:14:27;;;;;;;9.82;2.45;;;17.00;91.60;;;;;;5072512;28;20501;-49
2022/02/21 11:16:54;;;;;;;10.57;1.98;;;17.00;91.70;;;;;;5072314;28;20580;-48
2022/02/21 11:19:21;;;;;;;10.65;2.00;;;;;;;;;;5072256;28;20028;-49
2022/02/21 11:21:48;;;;;;;7.43;2.03;;;17.00;91.80;;;;;;5072546;28;20024;-48
2022/02/21 11:24:16;;;;;;;15.35;2.20;;;17.00;91.80;;;;;;5072127;28;20028;-47
2022/02/21 11:27:21;;;;;;;11.10;1.77;;;17.10;88.40;;;;;;5072464;28;20024;-49
2022/02/21 11:30:14;;;;;;;10.00;2.17;;;17.10;88.70;;;;;;5072166;28;20028;-49
2022/02/21 11:33:12;;;;;;;7.82;2.70;;;17.00;91.90;;;;;;5072161;28;20020;-47
2022/02/21 11:36:25;;;;;;;8.32;2.40;;;17.00;91.90;;;;;;5072092;28;20024;-49
2022/02/21 11:38:51;;;;;;;8.30;1.80;;;;;;;;;;5069682;28;20049;-48
2022/02/21 11:41:17;;;;;;;7.20;2.40;;;;;;;;;;5071944;28;20116;-50
2022/02/21 11:43:46;;;;;;;7.93;1.92;;;17.10;92.00;;;;;;5072294;28;20036;-49
2022/02/21 11:46:21;;;;;;;7.00;1.80;;;17.10;88.80;;;;;;5071755;28;20074;-48
2022/02/21 11:48:59;;;;;;;7.90;1.77;;;17.10;88.90;;;;;;5072230;28;20106;-49
2022/02/21 11:51:31;;;;;;;5.18;1.38;;;17.10;89.10;;;;;;5072375;28;20435;-49
2022/02/21 11:54:09;;;;;;;8.30;2.53;;;17.10;89.00;;;;;;5072190;28;20024;-47
2022/02/21 11:56:50;;;;;;;10.00;2.20;;;17.10;89.00;;;;;;5072163;28;20025;-48
2022/02/21 11:59:22;;;;;;;7.72;2.00;;;17.10;89.00;;;;;;5072070;28;20082;-47
2022/02/21 12:01:48;;;;;;;7.65;2.25;;;;;;;;;;5071903;28;20029;-48
2022/02/21 12:04:16;;;;;;;10.55;2.13;;;17.10;92.40;;;;;;5072210;28;20483;-43
2022/02/21 12:07:02;;;;;;;11.00;2.10;;;17.20;89.80;;;;;;5072351;28;20020;-44
2022/02/21 12:09:28;;;;;;;7.13;1.60;;;;;;;;;;5072128;28;20060;-44
2022/02/21 12:12:26;;;;;;;10.95;1.67;;;17.10;92.70;;;;;;5071847;28;20035;-43
2022/02/21 12:15:14;;;;;;;7.90;2.10;;;17.30;90.10;;;;;;5072111;28;20024;-43
2022/02/21 12:17:40;;;;;;;4.70;1.45;;;;;;;;;;5071962;28;20037;-43
2022/02/21 12:20:28;;;;;;;5.32;1.98;;;17.30;90.00;;;;;;5071972;28;20025;-44
2022/02/21 12:23:05;;;;;;;7.85;2.33;;;17.40;90.00;;;;;;5071942;28;20025;-43
2022/02/21 12:25:31;;;;;;;6.07;1.88;;;17.50;91.10;;;;;;5071897;28;20644;-43
2022/02/21 12:28:19;;;;;;;9.45;2.42;;;17.50;89.80;;;;;;5071868;28;20036;-44
2022/02/21 12:30:50;;;;;;;7.75;1.90;;;17.80;92.50;;;;;;5071903;28;20079;-43
2022/02/21 12:33:27;;;;;;;8.05;1.98;;;17.50;92.30;;;;;;5071875;28;20017;-44
2022/02/21 12:35:58;;;;;;;7.35;2.42;;;17.40;89.40;;;;;;5071785;28;20082;-44
2022/02/21 12:38:26;;;;;;;5.57;1.67;;;17.60;92.40;;;;;;5071727;28;20035;-44
2022/02/21 12:40:52;;;;;;;8.23;2.25;;;;;;;;;;5071820;28;20497;-43
2022/02/21 12:43:17;;;;;;;6.25;1.90;;;;;;;;;;5072044;28;20025;-43
2022/02/21 12:45:44;;;;;;;9.32;2.75;;;;;;;;;;5071743;28;20466;-43
2022/02/21 12:48:10;;;;;;;5.53;2.10;;;;;;;;;;5071906;28;20036;-43
2022/02/21 12:50:36;;;;;;;7.03;2.42;;;;;;;;;;5072047;28;20490;-44
2022/02/21 12:53:04;;;;;;;7.85;2.08;;;;;;;;;;5071760;28;20040;-43
2022/02/21 12:55:30;;;;;;;14.65;2.80;;;;;;;;;;5071625;28;20027;-44
2022/02/21 12:57:56;;;;;;;5.43;2.03;;;;;;;;;;5071698;28;20034;-43
2022/02/21 13:00:32;;;;;;;7.47;2.10;;;17.50;92.30;;;;;;5075245;28;20020;-43
2022/02/21 13:02:59;;;;;;;10.10;2.58;;;;;;;;;;5075115;28;20075;-44
2022/02/21 13:05:28;;;;;;;9.00;2.28;;;17.50;89.40;;;;;;5074932;28;20023;-44
2022/02/21 13:07:54;;;;;;;10.80;2.20;;;;;;;;;;5075020;28;20490;-44
2022/02/21 13:10:20;;;;;;;7.60;2.08;;;;;;;;;;5075156;28;20070;-45
2022/02/21 13:12:49;;;;;;;7.50;2.20;;;;;;;;;;5075055;28;20036;-44
2022/02/21 13:15:15;;;;;;;5.75;1.58;;;;;;;;;;5075220;28;20021;-43
2022/02/21 13:17:41;;;;;;;6.10;1.67;;;;;;;;;;5074992;28;20036;-44
2022/02/21 13:20:07;;;;;;;5.00;2.20;;;;;;;;;;5074857;28;20031;-44
2022/02/21 13:22:36;;;;;;;6.20;1.90;;;;;;;;;;5074779;28;20040;-44
2022/02/21 13:25:04;;;;;;;7.18;1.80;;;18.00;91.50;;;;;;5074797;28;20111;-44
2022/02/21 13:27:38;;;;;;;10.60;2.75;;;18.20;91.40;;;;;;5074902;28;20043;-44
2022/02/21 13:30:14;;;;;;;8.15;2.25;;;18.20;91.40;;;;;;5074682;28;20166;-44
2022/02/21 13:32:42;;;;;;;8.35;2.17;;;;;;;;;;5074663;28;20020;-44
2022/02/21 13:35:12;;;;;;;6.93;1.80;;;18.40;91.40;;;;;;5074708;28;20025;-44
2022/02/21 13:37:39;;;;;;;8.50;2.22;;;18.40;91.20;;;;;;5073365;28;20074;-44
2022/02/21 13:40:08;;;;;;;7.32;2.35;;;18.40;91.20;;;;;;5074487;28;20479;-44
2022/02/21 13:42:40;;;;;;;7.43;2.10;;;18.50;91.00;;;;;;5074431;28;20028;-43
2022/02/21 13:45:25;;;;;;;9.18;2.22;;;18.60;86.40;;;;;;5074397;28;20023;-44
2022/02/21 13:48:07;;;;;;;7.25;1.58;;;18.60;86.20;;;;;;5074490;28;20043;-43
2022/02/21 13:50:58;;;;;;;7.05;1.75;;;18.70;86.30;;;;;;5074542;28;20020;-43
2022/02/21 13:53:27;;;;;;;7.43;2.00;;;18.60;86.00;;;;;;5074130;28;20031;-44
2022/02/21 13:56:10;;;;;;;7.07;1.88;;;18.70;85.80;;;;;;5074004;28;20021;-45
2022/02/21 13:58:40;;;;;;;6.38;1.85;;;18.70;85.50;;;;;;5074117;28;20538;-44
2022/02/21 14:01:20;;;;;;;6.93;1.98;;;18.70;85.40;;;;;;5073688;28;20082;-44
2022/02/21 14:03:55;;;;;;;7.25;1.40;;;18.80;85.50;;;;;;5073629;28;20052;-43
2022/02/21 14:06:34;;;;;;;6.00;1.75;;;18.80;90.60;;;;;;5074013;28;20036;-44
2022/02/21 14:09:01;;;;;;;6.05;1.70;;;18.80;90.40;;;;;;5073435;28;20025;-43
2022/02/21 14:11:30;;;;;;;8.25;1.92;;;18.80;84.90;;;;;;5073861;28;20277;-44
2022/02/21 14:13:56;;;;;;;6.80;2.35;;;;;;;;;;5073738;28;20025;-43
2022/02/21 14:16:23;;;;;;;6.65;1.92;;;;;;;;;;5073924;28;20036;-43